Time;durP1;ratioP1;P1;durP2;ratioP2;P2;SDS_P1;SDS_P2;PMS_P1;PMS_P2;Temp;Humidity;BMP_temperature;BMP_pressure;BME280_temperature;BME280_humidity;BME280_pressure;Samples;Min_cycle;Max_cycle;Signal;HPM_P1;HPM_P2
2022/10/09 03:02:54;;;;;;;14.32;2.35;;;;;;;7.48;66.31;101888.13;5601544;23;20050;-67
2022/10/09 03:05:20;;;;;;;17.58;3.50;;;;;;;7.49;66.25;101888.97;4999875;28;20038;-70
2022/10/09 03:07:50;;;;;;;10.25;2.00;;;;;;;7.45;66.32;101899.03;4986919;28;20273;-68
2022/10/09 03:10:18;;;;;;;13.38;2.35;;;;;;;7.43;66.58;101904.50;4996147;28;20054;-68
2022/10/09 03:12:45;;;;;;;17.23;3.17;;;;;;;7.40;66.33;101899.38;5012776;28;20058;-69
2022/10/09 03:15:12;;;;;;;19.45;2.88;;;;;;;7.37;66.61;101904.09;5013376;28;20054;-69
2022/10/09 03:17:38;;;;;;;13.80;2.20;;;;;;;7.40;66.19;101902.03;5015147;28;20128;-68
2022/10/09 03:20:06;;;;;;;17.70;2.63;;;;;;;7.39;66.67;101910.16;5006302;28;20055;-67
2022/10/09 03:22:32;;;;;;;17.45;2.70;;;;;;;7.34;66.71;101901.63;4996403;28;20041;-67
2022/10/09 03:24:59;;;;;;;15.48;2.67;;;;;;;7.34;66.63;101906.97;4995381;28;20078;-69
2022/10/09 03:27:25;;;;;;;15.50;2.33;;;;;;;7.33;66.32;101910.63;4994163;28;20035;-68
2022/10/09 03:29:52;;;;;;;9.13;2.35;;;;;;;7.29;66.64;101904.66;4996469;28;20118;-68
2022/10/09 03:32:18;;;;;;;12.32;2.17;;;;;;;7.29;66.55;101906.44;4995053;28;20037;-69
2022/10/09 03:34:45;;;;;;;15.90;2.22;;;;;;;7.26;66.53;101904.00;4995383;28;20051;-69
2022/10/09 03:37:11;;;;;;;10.93;2.65;;;;;;;7.25;66.69;101903.13;5003142;28;20075;-68
2022/10/09 03:39:38;;;;;;;14.93;2.72;;;;;;;7.19;66.72;101908.94;5015292;28;20052;-67
2022/10/09 03:42:04;;;;;;;14.57;3.13;;;;;;;7.18;66.67;101916.06;5014647;28;20109;-67
2022/10/09 03:44:31;;;;;;;9.82;2.58;;;;;;;7.21;66.57;101916.81;5015129;28;20046;-68
2022/10/09 03:46:57;;;;;;;13.57;2.67;;;;;;;7.16;66.81;101918.00;5014591;28;20054;-66
2022/10/09 03:49:24;;;;;;;17.75;2.85;;;;;;;7.13;66.51;101923.56;5015211;28;20026;-68
2022/10/09 03:51:51;;;;;;;12.20;2.63;;;;;;;7.11;66.59;101916.59;5014746;28;20070;-69
2022/10/09 03:54:18;;;;;;;10.15;2.28;;;;;;;7.12;66.77;101924.53;5014078;28;20046;-69
2022/10/09 03:56:44;;;;;;;15.55;2.30;;;;;;;7.06;67.12;101924.94;4988621;28;20057;-69
2022/10/09 03:59:11;;;;;;;12.52;2.80;;;;;;;7.02;66.89;101920.78;5005624;28;20054;-67
2022/10/09 04:01:37;;;;;;;10.25;2.70;;;;;;;7.07;66.77;101936.47;4994070;28;20054;-69
2022/10/09 04:04:04;;;;;;;15.63;2.92;;;;;;;7.01;66.85;101932.41;4994213;28;20065;-68
2022/10/09 04:06:30;;;;;;;15.13;2.72;;;;;;;7.06;67.01;101930.28;4994555;28;20042;-66
2022/10/09 04:08:56;;;;;;;10.80;2.25;;;;;;;7.02;66.84;101935.94;4994570;28;20046;-67
2022/10/09 04:11:23;;;;;;;12.35;2.28;;;;;;;7.04;66.97;101937.53;4995744;28;20059;-69
2022/10/09 04:13:49;;;;;;;9.43;2.63;;;;;;;6.99;66.94;101931.69;4994477;28;20042;-68
2022/10/09 04:16:16;;;;;;;14.13;2.53;;;;;;;6.98;66.75;101937.09;4993772;28;20065;-69
2022/10/09 04:18:43;;;;;;;13.82;2.97;;;;;;;7.01;66.84;101939.56;4994666;28;20046;-68
2022/10/09 04:21:11;;;;;;;16.10;2.55;;;;;;;6.96;66.75;101939.88;4972540;28;20073;-68
2022/10/09 04:23:38;;;;;;;18.77;2.75;;;;;;;6.93;66.87;101935.63;4993962;28;20051;-67
2022/10/09 04:26:05;;;;;;;9.80;2.63;;;;;;;6.95;67.00;101949.72;4993822;28;20110;-67
2022/10/09 04:28:32;;;;;;;10.60;2.65;;;;;;;6.87;67.14;101951.19;4994718;28;20041;-67
2022/10/09 04:30:59;;;;;;;17.10;2.53;;;;;;;6.86;67.01;101947.66;4995664;28;20050;-69
2022/10/09 04:33:26;;;;;;;19.90;3.45;;;;;;;6.84;67.45;101951.41;4994509;28;20056;-69
2022/10/09 04:35:54;;;;;;;11.00;2.70;;;;;;;6.83;67.31;101952.38;4994387;28;20047;-70
2022/10/09 04:38:21;;;;;;;14.73;2.97;;;;;;;6.81;67.06;101946.31;4993868;28;20055;-69
2022/10/09 04:40:59;;;;;;;13.30;2.85;;;;;;;6.78;67.38;101949.19;4993392;28;20081;-69
2022/10/09 04:43:26;;;;;;;13.27;2.65;;;;;;;6.78;67.33;101952.69;4995055;28;20122;-69
2022/10/09 04:45:53;;;;;;;14.40;3.60;;;;;;;6.76;67.56;101956.41;4993664;28;20095;-69
2022/10/09 04:48:20;;;;;;;16.85;3.50;;;;;;;6.78;67.38;101955.34;4994144;28;20034;-68
2022/10/09 04:50:47;;;;;;;10.00;3.05;;;;;;;6.74;67.46;101955.66;4993393;28;20030;-69
2022/10/09 04:53:13;;;;;;;20.95;3.10;;;;;;;6.69;67.45;101947.97;4993946;28;20051;-69
2022/10/09 04:55:41;;;;;;;11.10;3.17;;;;;;;6.65;67.39;101955.34;4994405;28;20046;-68
2022/10/09 04:58:09;;;;;;;12.68;2.75;;;;;;;6.67;67.50;101950.75;4993798;28;20051;-67
2022/10/09 05:00:44;;;;;;;15.02;2.80;;;;;;;6.67;67.39;101958.75;4993935;28;20050;-68
2022/10/09 05:03:11;;;;;;;17.00;3.97;;;;;;;6.56;67.61;101963.94;4993250;28;20054;-68
2022/10/09 05:05:38;;;;;;;19.60;4.80;;;;;;;6.56;67.53;101958.63;4997642;28;20037;-67
2022/10/09 05:08:05;;;;;;;13.98;4.65;;;;;;;6.57;67.74;101955.00;4998106;28;20099;-68
2022/10/09 05:10:31;;;;;;;19.35;4.93;;;;;;;6.57;67.56;101960.34;4996444;28;20039;-67
2022/10/09 05:12:58;;;;;;;17.42;4.93;;;;;;;6.54;67.67;101965.03;4979134;28;20051;-69
2022/10/09 05:15:25;;;;;;;23.50;4.90;;;;;;;6.53;67.73;101961.50;4978941;29;20039;-70
2022/10/09 05:17:51;;;;;;;16.98;4.00;;;;;;;6.50;68.00;101958.19;4978105;29;20055;-70
2022/10/09 05:20:18;;;;;;;22.38;3.95;;;;;;;6.49;68.15;101960.00;4978508;29;20035;-69
2022/10/09 05:22:45;;;;;;;29.70;4.28;;;;;;;6.50;68.11;101969.72;4978629;29;20054;-70
2022/10/09 05:25:12;;;;;;;18.85;3.25;;;;;;;6.53;68.04;101966.84;4978146;29;20066;-70
2022/10/09 05:27:39;;;;;;;15.85;3.58;;;;;;;6.46;68.02;101965.56;4977878;29;20031;-68
2022/10/09 05:30:06;;;;;;;17.63;3.95;;;;;;;6.48;68.01;101974.28;4978337;29;20051;-69
2022/10/09 05:32:33;;;;;;;18.40;4.38;;;;;;;6.45;67.95;101971.81;4977820;28;20086;-67
2022/10/09 05:34:59;;;;;;;16.00;3.60;;;;;;;6.47;68.01;101985.91;4979043;28;20045;-68
2022/10/09 05:37:26;;;;;;;19.70;3.78;;;;;;;6.47;67.85;101985.91;4978296;29;20045;-69
2022/10/09 05:39:52;;;;;;;19.85;3.72;;;;;;;6.51;67.61;101992.75;4977915;28;20063;-69
2022/10/09 05:42:19;;;;;;;11.52;3.30;;;;;;;6.54;67.40;101986.38;4978142;29;20031;-68
2022/10/09 05:44:45;;;;;;;15.32;3.72;;;;;;;6.51;67.76;101992.75;4978569;29;20058;-68
2022/10/09 05:47:16;;;;;;;17.98;3.60;;;;;;;6.48;67.63;101990.28;4977599;28;20062;-68
2022/10/09 05:49:43;;;;;;;11.48;3.47;;;;;;;6.50;67.81;101992.84;4978106;29;20041;-69
2022/10/09 05:52:09;;;;;;;11.02;3.13;;;;;;;6.52;67.50;101999.78;4977372;29;20049;-69
2022/10/09 05:54:36;;;;;;;14.25;2.78;;;;;;;6.53;67.42;102012.16;4977811;29;20106;-68
2022/10/09 05:57:03;;;;;;;17.48;3.90;;;;;;;6.54;67.13;102015.69;4978047;29;20045;-68
2022/10/09 05:59:30;;;;;;;14.02;3.55;;;;;;;6.59;66.98;102019.75;4975901;29;20053;-62
2022/10/09 06:01:56;;;;;;;12.02;3.05;;;;;;;6.63;66.84;102015.06;4946554;28;20499;-62
2022/10/09 06:04:24;;;;;;;12.52;4.18;;;;;;;6.56;67.16;102017.28;4946384;28;20542;-61
2022/10/09 06:06:50;;;;;;;13.80;3.60;;;;;;;6.60;66.96;102021.47;4954983;29;20057;-63
2022/10/09 06:09:24;;;;;;;13.88;3.40;;;;;;;6.60;67.01;102026.81;4953150;28;20051;-61
2022/10/09 06:11:52;;;;;;;14.30;3.50;;;;;;;6.57;67.29;102013.66;4955894;28;20047;-62
2022/10/09 06:14:23;;;;;;;14.80;3.67;;;;;;;6.62;67.40;102024.88;4955540;28;20047;-61
2022/10/09 06:16:50;;;;;;;13.43;3.70;;;;;;;6.67;67.49;102028.09;4954095;28;20047;-64
2022/10/09 06:19:18;;;;;;;14.60;4.40;;;;;;;6.77;67.27;102030.97;4955455;28;20057;-63
2022/10/09 06:21:46;;;;;;;20.15;3.75;;;;;;;6.76;67.14;102033.75;4938685;29;20046;-71
2022/10/09 06:24:18;;;;;;;10.82;3.67;;;;;;;6.80;67.13;102033.44;4955711;29;20066;-71
2022/10/09 06:26:51;;;;;;;13.48;3.40;;;;;;;6.85;67.39;102035.81;4955481;28;20054;-70
2022/10/09 06:29:17;;;;;;;18.17;4.07;;;;;;;6.86;67.21;102042.84;4954181;28;20043;-70
2022/10/09 06:31:44;;;;;;;21.17;3.38;;;;;;;6.94;67.38;102035.19;4954717;28;20043;-71
2022/10/09 06:34:10;;;;;;;13.45;3.92;;;;;;;6.90;67.32;102041.69;4954646;28;20055;-70
2022/10/09 06:36:36;;;;;;;14.48;3.58;;;;;;;6.91;67.70;102041.59;4954475;28;20480;-69
2022/10/09 06:39:06;;;;;;;15.93;3.08;;;;;;;6.97;67.60;102042.97;4954022;28;20043;-68
2022/10/09 06:41:33;;;;;;;11.60;3.75;;;;;;;7.09;67.21;102051.97;4954833;28;20051;-69
2022/10/09 06:44:03;;;;;;;13.32;3.85;;;;;;;7.09;67.23;102054.66;4954453;28;20054;-71
2022/10/09 06:46:35;;;;;;;12.27;3.72;;;;;;;7.17;67.48;102055.81;4954468;29;20054;-71
2022/10/09 06:49:03;;;;;;;17.65;7.25;;;;;;;7.27;67.09;102057.84;4953792;29;20054;-71
2022/10/09 06:51:30;;;;;;;27.05;8.90;;;;;;;7.39;66.88;102059.66;4954503;28;20398;-71
2022/10/09 06:53:59;;;;;;;26.50;6.90;;;;;;;7.51;66.73;102064.16;4954034;28;20501;-71
2022/10/09 06:56:29;;;;;;;14.82;4.45;;;;;;;7.64;66.35;102065.00;4953668;28;20418;-71
2022/10/09 06:58:58;;;;;;;14.98;3.97;;;;;;;7.90;66.14;102070.34;4953927;28;20047;-70
2022/10/09 07:01:29;;;;;;;15.35;4.15;;;;;;;8.26;65.13;102066.84;4954004;28;20051;-71
2022/10/09 07:03:58;;;;;;;14.57;3.95;;;;;;;8.54;64.24;102076.34;4954112;29;20134;-70
2022/10/09 07:06:27;;;;;;;14.93;3.40;;;;;;;9.10;63.21;102073.03;4954136;28;20077;-70
2022/10/09 07:08:59;;;;;;;17.08;3.78;;;;;;;9.75;61.22;102068.88;4954012;28;20055;-71
2022/10/09 07:11:26;;;;;;;;;;;;;;;10.34;59.02;102076.63;4963185;28;20043;-70
2022/10/09 07:13:56;;;;;;;14.73;2.95;;;;;;;11.04;56.63;102080.66;4954680;28;19926;-70
2022/10/09 07:16:25;;;;;;;11.98;3.30;;;;;;;11.47;55.52;102076.97;4973268;28;20046;-70
2022/10/09 07:18:53;;;;;;;9.80;2.38;;;;;;;11.80;54.18;102078.59;4972093;28;20137;-70
2022/10/09 07:21:20;;;;;;;14.02;3.20;;;;;;;12.14;53.21;102084.53;4972269;28;20471;-70
2022/10/09 07:23:47;;;;;;;14.05;3.42;;;;;;;12.28;51.93;102083.28;4972104;28;20129;-65
2022/10/09 07:26:19;;;;;;;8.60;2.50;;;;;;;12.53;51.39;102086.44;4971660;28;20055;-65
2022/10/09 07:28:46;;;;;;;9.95;3.10;;;;;;;12.60;51.29;102080.34;4971853;28;20499;-65
2022/10/09 07:31:13;;;;;;;10.75;2.53;;;;;;;12.87;50.52;102087.75;4971148;28;20050;-65
2022/10/09 07:33:43;;;;;;;11.35;2.92;;;;;;;13.22;49.22;102082.78;4971712;28;20446;-66
2022/10/09 07:36:10;;;;;;;14.38;2.72;;;;;;;13.23;49.69;102085.31;4971507;28;20043;-66
2022/10/09 07:38:36;;;;;;;11.63;2.63;;;;;;;13.48;48.48;102091.91;4971523;28;20046;-66
2022/10/09 07:41:06;;;;;;;8.90;2.92;;;;;;;13.78;47.75;102093.56;4972152;28;20069;-65
2022/10/09 07:43:40;;;;;;;11.82;3.08;;;;;;;14.12;47.03;102090.28;4967903;28;20051;-65
2022/10/09 07:46:11;;;;;;;11.82;3.17;;;;;;;14.14;46.85;102101.78;4971838;28;20051;-65
2022/10/09 07:48:38;;;;;;;14.70;2.90;;;;;;;14.18;46.86;102094.22;4972313;28;20121;-64
2022/10/09 07:51:14;;;;;;;13.65;2.83;;;;;;;14.26;46.48;102087.09;4969634;28;20053;-67
2022/10/09 07:53:40;;;;;;;11.85;2.95;;;;;;;14.39;46.89;102091.25;4971308;28;20415;-65
2022/10/09 07:56:15;;;;;;;11.48;2.65;;;;;;;14.64;45.80;102093.22;4971270;28;20056;-67
2022/10/09 07:58:42;;;;;;;13.48;2.80;;;;;;;15.31;44.58;102100.91;4962645;28;20056;-65
2022/10/09 08:01:09;;;;;;;13.48;3.03;;;;;;;15.46;43.81;102100.16;4970288;28;20498;-65
2022/10/09 08:03:36;;;;;;;11.15;2.85;;;;;;;15.80;42.76;102096.69;4972027;28;20051;-65
2022/10/09 08:06:03;;;;;;;10.07;2.95;;;;;;;15.42;43.52;102097.94;4971311;28;20039;-65
2022/10/09 08:08:30;;;;;;;17.67;3.60;;;;;;;15.34;44.00;102095.19;4972121;28;20049;-66
2022/10/09 08:10:57;;;;;;;14.25;3.20;;;;;;;15.66;43.37;102106.25;4948283;29;20051;-66
2022/10/09 08:13:24;;;;;;;9.27;2.45;;;;;;;15.80;43.00;102098.53;4952329;29;20074;-66
2022/10/09 08:15:50;;;;;;;17.60;2.97;;;;;;;15.52;43.13;102105.97;4952149;29;20047;-64
2022/10/09 08:18:17;;;;;;;12.75;2.72;;;;;;;15.83;43.09;102114.47;4951582;29;20139;-65
2022/10/09 08:20:44;;;;;;;10.98;3.13;;;;;;;15.76;43.30;102108.00;4933785;29;20122;-66
2022/10/09 08:23:10;;;;;;;13.15;3.05;;;;;;;15.60;43.58;102106.84;4950943;29;20050;-66
2022/10/09 08:25:37;;;;;;;10.25;2.95;;;;;;;15.64;43.35;102110.09;4951660;29;20176;-64
2022/10/09 08:28:04;;;;;;;15.45;5.13;;;;;;;15.93;43.03;102109.78;4952261;29;20055;-65
2022/10/09 08:30:31;;;;;;;11.02;3.70;;;;;;;16.25;42.05;102117.19;4951998;29;20053;-64
2022/10/09 08:32:57;;;;;;;14.27;4.95;;;;;;;16.50;41.61;102119.97;4952131;29;20050;-65
2022/10/09 08:35:24;;;;;;;12.50;3.50;;;;;;;16.63;41.29;102115.78;4934099;29;20047;-66
2022/10/09 08:37:50;;;;;;;13.32;2.83;;;;;;;16.12;41.92;102125.75;4952618;29;20057;-65
2022/10/09 08:40:27;;;;;;;12.75;2.90;;;;;;;16.61;41.45;102120.56;4951717;28;20051;-66
2022/10/09 08:43:05;;;;;;;10.90;2.70;;;;;;;17.79;39.10;102117.50;4951417;29;20494;-65
2022/10/09 08:45:33;;;;;;;9.23;2.88;;;;;;;18.02;38.73;102118.41;4952787;29;20051;-65
2022/10/09 08:48:10;;;;;;;13.63;3.40;;;;;;;18.04;38.41;102124.50;4952106;29;20424;-65
2022/10/09 08:50:42;;;;;;;14.85;3.15;;;;;;;18.49;38.13;102120.25;4951692;29;20051;-64
2022/10/09 08:53:25;;;;;;;10.45;2.50;;;;;;;18.98;36.76;102119.09;4951971;29;20051;-66
2022/10/09 08:55:56;;;;;;;11.23;3.30;;;;;;;18.65;37.10;102115.72;4952310;29;20045;-66
2022/10/09 08:58:27;;;;;;;;;;;;;;;18.53;36.92;102118.88;4951818;29;20546;-66
2022/10/09 09:01:01;;;;;;;16.03;3.20;;;;;;;18.61;37.00;102119.84;4951621;29;20290;-65
2022/10/09 09:04:03;;;;;;;13.43;3.35;;;;;;;18.86;36.91;102115.06;4951945;29;20295;-65
2022/10/09 09:06:57;;;;;;;13.35;3.92;;;;;;;19.62;35.41;102111.38;4951420;29;20051;-64
2022/10/09 09:09:23;;;;;;;14.15;2.80;;;;;;;19.75;35.24;102113.47;4952234;29;20049;-64
2022/10/09 09:12:06;;;;;;;13.90;3.47;;;;;;;20.14;34.27;102118.63;4963239;28;20513;-64
2022/10/09 09:14:33;;;;;;;10.20;3.00;;;;;;;20.05;34.25;102122.47;4953349;28;20450;-64
2022/10/09 09:17:17;;;;;;;15.63;2.90;;;;;;;18.95;35.77;102108.59;4971165;28;20046;-65
2022/10/09 09:19:53;;;;;;;10.65;2.75;;;;;;;17.03;39.80;102114.16;4970623;28;20517;-64
2022/10/09 09:22:21;;;;;;;16.42;3.45;;;;;;;19.38;36.00;102108.88;4970749;28;20424;-64
2022/10/09 09:24:51;;;;;;;12.32;3.33;;;;;;;20.12;34.62;102106.22;4970448;28;20047;-64
2022/10/09 09:27:21;;;;;;;10.15;3.05;;;;;;;19.85;35.12;102105.00;4971404;28;20057;-64
2022/10/09 09:30:01;;;;;;;13.73;2.97;;;;;;;20.83;33.25;102101.78;4970988;28;20047;-64
2022/10/09 09:32:30;;;;;;;10.73;3.08;;;;;;;19.83;34.42;102102.50;4970967;28;20394;-66
2022/10/09 09:35:07;;;;;;;12.13;3.15;;;;;;;20.68;33.65;102096.41;4970328;28;20414;-65
2022/10/09 09:37:33;;;;;;;13.05;4.13;;;;;;;20.87;32.85;102111.28;4961514;28;20052;-65
2022/10/09 09:40:00;;;;;;;12.77;3.60;;;;;;;20.50;33.50;102104.19;4970760;28;20430;-65
2022/10/09 09:42:47;;;;;;;13.93;3.03;;;;;;;20.98;32.52;102100.91;4970747;28;20055;-65
2022/10/09 09:45:20;;;;;;;9.65;2.80;;;;;;;20.88;32.44;102098.50;4970008;28;20407;-66
2022/10/09 09:47:58;;;;;;;12.98;3.17;;;;;;;21.39;32.25;102103.78;4970040;28;20046;-64
2022/10/09 09:50:43;;;;;;;12.02;3.03;;;;;;;20.89;32.84;102108.34;4962305;28;20049;-64
2022/10/09 09:53:38;;;;;;;12.10;3.28;;;;;;;20.18;33.76;102105.47;4974081;28;20102;-65
2022/10/09 09:56:05;;;;;;;13.70;2.75;;;;;;;20.17;33.59;102104.59;4974409;28;20039;-64
2022/10/09 09:58:43;;;;;;;9.18;2.58;;;;;;;19.75;34.17;102101.72;4974963;28;20072;-65
2022/10/09 10:01:20;;;;;;;11.65;3.38;;;;;;;20.69;33.17;102094.50;4973918;28;20046;-65
2022/10/09 10:03:49;;;;;;;13.25;2.83;;;;;;;21.27;32.48;102095.28;4973467;28;20043;-63
2022/10/09 10:06:29;;;;;;;10.52;2.53;;;;;;;21.74;31.54;102096.44;4974391;28;20050;-64
2022/10/09 10:09:03;;;;;;;13.15;2.58;;;;;;;21.22;31.85;102092.31;4974311;28;20061;-64
2022/10/09 10:11:31;;;;;;;9.93;2.75;;;;;;;21.14;32.08;102093.28;4963994;28;20043;-64
2022/10/09 10:14:06;;;;;;;7.78;2.58;;;;;;;21.58;31.67;102085.84;4955131;29;20047;-65
2022/10/09 10:16:37;;;;;;;10.38;2.67;;;;;;;21.67;31.41;102089.25;4954885;29;20051;-65
2022/10/09 10:19:05;;;;;;;17.23;3.47;;;;;;;21.74;30.63;102084.69;4955499;29;20381;-65
2022/10/09 10:21:47;;;;;;;12.43;2.72;;;;;;;20.73;32.05;102084.06;4954009;29;20051;-65
2022/10/09 10:24:19;;;;;;;13.80;3.25;;;;;;;20.39;32.72;102078.25;4954713;29;20051;-64
2022/10/09 10:26:54;;;;;;;11.43;2.95;;;;;;;20.36;33.01;102080.53;4954605;29;20055;-64
2022/10/09 10:29:43;;;;;;;13.45;2.97;;;;;;;20.93;32.58;102071.47;4954206;29;20074;-64
2022/10/09 10:32:16;;;;;;;8.63;2.58;;;;;;;19.72;33.23;102070.25;4953818;29;20047;-66
2022/10/09 10:35:21;;;;;;;13.20;3.10;;;;;;;19.08;35.25;102070.75;4954145;29;20053;-65
2022/10/09 10:37:59;;;;;;;14.07;2.90;;;;;;;20.07;33.75;102068.63;4857764;29;20045;-65
2022/10/09 10:40:31;;;;;;;15.98;2.25;;;;;;;19.55;34.14;102066.00;4858638;29;20058;-65
2022/10/09 10:43:02;;;;;;;11.77;2.80;;;;;;;20.08;33.33;102077.66;4858023;29;20064;-64
2022/10/09 10:45:47;;;;;;;15.75;2.65;;;;;;;18.93;34.60;102070.72;4857767;29;20153;-65
2022/10/09 10:48:24;;;;;;;8.60;1.85;;;;;;;20.54;32.87;102067.31;4853319;29;20054;-65
2022/10/09 10:51:03;;;;;;;10.77;2.78;;;;;;;18.91;33.98;102066.44;4857306;29;20049;-66
2022/10/09 10:53:54;;;;;;;11.65;3.13;;;;;;;19.07;33.66;102058.19;4857641;29;20509;-65
2022/10/09 10:57:10;;;;;;;15.32;3.50;;;;;;;19.39;33.10;102051.56;4858102;29;20102;-65
2022/10/09 10:59:40;;;;;;;14.48;2.25;;;;;;;17.30;36.91;102057.84;4836115;29;20046;-65
2022/10/09 11:02:28;;;;;;;13.95;3.05;;;;;;;17.98;36.42;102045.63;4855748;29;20109;-65
2022/10/09 11:05:11;;;;;;;13.18;4.60;;;;;;;19.42;34.25;102043.03;4856973;29;20490;-65
2022/10/09 11:07:56;;;;;;;19.50;4.28;;;;;;;20.07;33.27;102046.00;4865663;29;20050;-65
2022/10/09 11:10:46;;;;;;;13.50;2.75;;;;;;;19.73;32.66;102048.31;4954099;28;20292;-65
2022/10/09 11:13:46;;;;;;;14.38;2.30;;;;;;;19.99;31.84;102049.69;4972754;28;20042;-64
2022/10/09 11:16:42;;;;;;;15.40;2.63;;;;;;;18.12;34.42;102042.16;4960300;28;20047;-63
2022/10/09 11:19:47;;;;;;;13.45;2.70;;;;;;;18.63;34.61;102052.56;4964647;28;20383;-66
2022/10/09 11:22:38;;;;;;;12.23;2.08;;;;;;;19.81;32.18;102038.34;4972735;28;20047;-64
2022/10/09 11:25:28;;;;;;;14.18;2.15;;;;;;;19.95;31.75;102035.59;4973606;28;20050;-65
2022/10/09 11:28:06;;;;;;;14.80;2.63;;;;;;;19.41;32.88;102035.03;4971771;28;20047;-64
2022/10/09 11:30:42;;;;;;;13.82;2.78;;;;;;;18.73;33.95;102031.41;4971935;28;20050;-64
2022/10/09 11:33:26;;;;;;;9.18;2.45;;;;;;;19.04;33.85;102025.06;4971132;28;20046;-65
2022/10/09 11:36:05;;;;;;;15.07;2.90;;;;;;;20.00;32.31;102020.56;4971630;28;20467;-64
2022/10/09 11:38:43;;;;;;;13.27;2.65;;;;;;;17.38;36.67;102011.78;4971698;28;20054;-64
2022/10/09 11:41:11;;;;;;;21.42;2.75;;;;;;;17.63;36.80;102017.94;4972735;28;20105;-64
2022/10/09 11:43:40;;;;;;;18.60;2.97;;;;;;;19.43;34.19;102020.22;4972688;28;20042;-64
2022/10/09 11:46:17;;;;;;;11.50;3.15;;;;;;;21.56;30.66;102000.53;4971976;28;20513;-64
2022/10/09 11:49:09;;;;;;;13.10;2.58;;;;;;;21.60;30.57;101999.94;4972281;28;20401;-65
2022/10/09 11:52:00;;;;;;;11.20;2.15;;;;;;;20.60;31.37;102001.13;4972775;28;20077;-64
2022/10/09 11:54:27;;;;;;;16.77;2.60;;;;;;;19.40;32.35;101997.97;4971776;28;20068;-65
2022/10/09 11:56:59;;;;;;;17.45;2.72;;;;;;;20.35;31.17;101999.75;4972222;28;20054;-65
2022/10/09 11:59:30;;;;;;;9.32;2.33;;;;;;;21.97;28.96;101991.50;4972456;28;20058;-65
2022/10/09 12:01:58;;;;;;;11.57;2.42;;;;;;;21.59;28.71;101997.41;4962240;28;20050;-65
2022/10/09 12:04:33;;;;;;;13.40;2.17;;;;;;;20.39;30.30;101988.31;4967506;28;20490;-64
2022/10/09 12:07:25;;;;;;;13.02;2.25;;;;;;;19.54;32.00;101993.56;4970262;28;20121;-65
2022/10/09 12:09:59;;;;;;;17.33;4.30;;;;;;;18.08;35.07;101991.94;4972462;28;20522;-65
2022/10/09 12:12:25;;;;;;;16.08;3.63;;;;;;;17.73;36.18;101987.91;4971446;28;20375;-64
2022/10/09 12:14:52;;;;;;;14.50;2.30;;;;;;;17.61;36.36;101982.00;4970658;28;20387;-64
2022/10/09 12:17:22;;;;;;;12.55;2.38;;;;;;;16.86;37.08;101977.78;4971691;28;20062;-64
2022/10/09 12:20:02;;;;;;;12.55;2.85;;;;;;;16.07;38.09;101983.78;4954114;28;20051;-64
2022/10/09 12:22:48;;;;;;;5.57;1.73;;;;;;;16.11;38.57;101985.16;4971470;28;20147;-64
2022/10/09 12:25:42;;;;;;;16.20;2.20;;;;;;;16.04;38.96;101982.25;4971978;28;20537;-65
2022/10/09 12:28:30;;;;;;;12.50;2.58;;;;;;;16.31;38.33;101974.88;4971613;28;20054;-65
2022/10/09 12:30:58;;;;;;;15.63;2.28;;;;;;;16.37;38.29;101975.03;4971389;28;20062;-65
2022/10/09 12:34:13;;;;;;;11.75;1.85;;;;;;;18.67;34.26;101966.91;4970672;28;20057;-65
2022/10/09 12:36:42;;;;;;;11.88;1.95;;;;;;;16.74;37.31;101960.16;4971215;28;20050;-65
2022/10/09 12:39:27;;;;;;;10.38;2.45;;;;;;;17.44;35.99;101956.81;4947020;28;20051;-65
2022/10/09 12:41:56;;;;;;;14.35;2.53;;;;;;;17.26;36.73;101945.31;4970570;28;20054;-65
2022/10/09 12:44:29;;;;;;;14.48;2.28;;;;;;;17.13;37.05;101945.88;4970802;28;20047;-64
2022/10/09 12:47:02;;;;;;;17.02;3.42;;;;;;;16.63;37.88;101950.50;4971629;28;20442;-64
2022/10/09 12:49:29;;;;;;;14.23;3.08;;;;;;;18.55;34.59;101951.06;4971092;28;20054;-65
2022/10/09 12:51:57;;;;;;;9.93;1.95;;;;;;;18.20;33.71;101938.94;4971226;28;20055;-65
2022/10/09 12:54:27;;;;;;;11.27;2.63;;;;;;;16.18;37.22;101946.41;4971171;28;20046;-64
2022/10/09 12:56:55;;;;;;;9.32;1.70;;;;;;;15.87;38.38;101934.50;4971403;28;20058;-65
2022/10/09 12:59:24;;;;;;;13.23;1.90;;;;;;;14.77;40.04;101941.56;4971145;28;20042;-65
2022/10/09 13:01:56;;;;;;;10.75;2.05;;;;;;;14.86;40.41;101934.38;4968602;28;20051;-65
2022/10/09 13:04:28;;;;;;;10.13;1.90;;;;;;;15.20;39.95;101943.38;4970516;28;20049;-64
2022/10/09 13:06:57;;;;;;;11.50;1.98;;;;;;;14.73;40.51;101951.00;4971261;28;20429;-64
2022/10/09 13:09:31;;;;;;;12.43;2.08;;;;;;;14.96;39.55;101940.53;4971375;28;20054;-64
2022/10/09 13:12:22;;;;;;;10.98;2.17;;;;;;;14.70;40.21;101935.06;4958347;28;20073;-64
2022/10/09 13:15:03;;;;;;;14.05;2.30;;;;;;;14.18;41.11;101933.13;4955223;29;20047;-64
2022/10/09 13:17:54;;;;;;;17.70;2.30;;;;;;;14.37;41.76;101925.88;4929625;29;20061;-65
2022/10/09 13:20:44;;;;;;;11.05;2.17;;;;;;;14.13;41.54;101938.16;4955026;29;20145;-65
2022/10/09 13:23:35;;;;;;;16.97;1.77;;;;;;;14.20;41.82;101922.19;4930418;28;20403;-64
2022/10/09 13:26:28;;;;;;;14.07;2.50;;;;;;;14.33;41.66;101917.25;4957952;28;20359;-65
2022/10/09 13:29:20;;;;;;;12.68;2.50;;;;;;;13.99;41.43;101919.81;4931429;29;20049;-64
2022/10/09 13:32:16;;;;;;;9.97;2.30;;;;;;;13.82;40.85;101914.22;4958758;29;20053;-65
2022/10/09 13:35:06;;;;;;;13.00;2.10;;;;;;;14.06;40.85;101915.50;4933810;28;20054;-64
2022/10/09 13:37:57;;;;;;;8.27;1.10;;;;;;;13.92;41.37;101913.31;4958705;29;20042;-64
2022/10/09 13:40:48;;;;;;;11.55;2.45;;;;;;;14.06;41.52;101910.09;4933574;28;20577;-64
